sensor_id;sensor_type;location;lat;lon;timestamp;P1;durP1;ratioP1;P2;durP2;ratioP2
1026;SDS011;502;48.746;9.214;2022-09-13T00:00:58;3.10;;;2.73;;
1026;SDS011;502;48.746;9.214;2022-09-13T00:03:25;3.67;;;2.90;;
1026;SDS011;502;48.746;9.214;2022-09-13T00:05:52;3.40;;;2.67;;
1026;SDS011;502;48.746;9.214;2022-09-13T00:08:20;3.83;;;3.03;;
1026;SDS011;502;48.746;9.214;2022-09-13T00:10:47;4.50;;;2.77;;
1026;SDS011;502;48.746;9.214;2022-09-13T00:13:14;2.60;;;2.40;;
1026;SDS011;502;48.746;9.214;2022-09-13T00:15:42;2.87;;;2.60;;
1026;SDS011;502;48.746;9.214;2022-09-13T00:18:09;2.87;;;2.67;;
1026;SDS011;502;48.746;9.214;2022-09-13T00:20:36;3.10;;;2.80;;
1026;SDS011;502;48.746;9.214;2022-09-13T00:23:03;5.80;;;4.50;;
1026;SDS011;502;48.746;9.214;2022-09-13T00:25:31;6.33;;;4.97;;
1026;SDS011;502;48.746;9.214;2022-09-13T00:27:58;5.67;;;5.07;;
1026;SDS011;502;48.746;9.214;2022-09-13T00:30:24;5.37;;;3.77;;
1026;SDS011;502;48.746;9.214;2022-09-13T00:32:51;3.20;;;2.90;;
1026;SDS011;502;48.746;9.214;2022-09-13T00:35:17;3.40;;;2.47;;
1026;SDS011;502;48.746;9.214;2022-09-13T00:37:44;2.70;;;2.50;;
1026;SDS011;502;48.746;9.214;2022-09-13T00:40:11;3.57;;;2.70;;
1026;SDS011;502;48.746;9.214;2022-09-13T00:42:39;3.47;;;2.33;;
1026;SDS011;502;48.746;9.214;2022-09-13T00:45:13;2.53;;;2.33;;
1026;SDS011;502;48.746;9.214;2022-09-13T00:47:42;3.30;;;2.57;;
1026;SDS011;502;48.746;9.214;2022-09-13T00:50:15;3.93;;;2.33;;
1026;SDS011;502;48.746;9.214;2022-09-13T00:52:45;2.73;;;2.50;;
1026;SDS011;502;48.746;9.214;2022-09-13T00:55:15;3.10;;;2.80;;
1026;SDS011;502;48.746;9.214;2022-09-13T00:57:47;3.20;;;2.90;;
1026;SDS011;502;48.746;9.214;2022-09-13T01:00:14;5.00;;;2.53;;
1026;SDS011;502;48.746;9.214;2022-09-13T01:02:43;2.83;;;2.53;;
1026;SDS011;502;48.746;9.214;2022-09-13T01:05:10;3.80;;;2.20;;
1026;SDS011;502;48.746;9.214;2022-09-13T01:07:39;2.40;;;2.07;;
1026;SDS011;502;48.746;9.214;2022-09-13T01:10:06;2.20;;;1.90;;
1026;SDS011;502;48.746;9.214;2022-09-13T01:12:36;3.33;;;2.77;;
1026;SDS011;502;48.746;9.214;2022-09-13T01:15:09;2.70;;;2.00;;
1026;SDS011;502;48.746;9.214;2022-09-13T01:17:36;2.40;;;2.20;;
1026;SDS011;502;48.746;9.214;2022-09-13T01:20:04;2.83;;;2.10;;
1026;SDS011;502;48.746;9.214;2022-09-13T01:22:46;2.00;;;1.80;;
1026;SDS011;502;48.746;9.214;2022-09-13T01:28:29;1.83;;;1.60;;
1026;SDS011;502;48.746;9.214;2022-09-13T01:31:05;3.10;;;2.40;;
1026;SDS011;502;48.746;9.214;2022-09-13T01:33:38;2.43;;;2.23;;
1026;SDS011;502;48.746;9.214;2022-09-13T01:36:18;2.10;;;1.90;;
1026;SDS011;502;48.746;9.214;2022-09-13T01:38:58;2.47;;;1.97;;
1026;SDS011;502;48.746;9.214;2022-09-13T01:41:31;2.67;;;2.40;;
1026;SDS011;502;48.746;9.214;2022-09-13T01:44:09;2.70;;;2.10;;
1026;SDS011;502;48.746;9.214;2022-09-13T01:46:44;2.53;;;2.30;;
1026;SDS011;502;48.746;9.214;2022-09-13T01:49:14;2.07;;;1.80;;
1026;SDS011;502;48.746;9.214;2022-09-13T01:51:44;2.20;;;2.00;;
1026;SDS011;502;48.746;9.214;2022-09-13T01:54:16;2.53;;;1.93;;
1026;SDS011;502;48.746;9.214;2022-09-13T01:56:49;12.37;;;2.30;;
1026;SDS011;502;48.746;9.214;2022-09-13T01:59:20;3.27;;;2.50;;
1026;SDS011;502;48.746;9.214;2022-09-13T02:01:53;2.57;;;2.37;;
1026;SDS011;502;48.746;9.214;2022-09-13T02:04:21;2.77;;;2.47;;
1026;SDS011;502;48.746;9.214;2022-09-13T02:06:50;6.67;;;2.90;;
1026;SDS011;502;48.746;9.214;2022-09-13T02:09:20;3.17;;;2.40;;
1026;SDS011;502;48.746;9.214;2022-09-13T02:11:49;3.40;;;2.47;;
1026;SDS011;502;48.746;9.214;2022-09-13T02:14:19;3.40;;;2.73;;
1026;SDS011;502;48.746;9.214;2022-09-13T02:16:49;3.50;;;2.50;;
1026;SDS011;502;48.746;9.214;2022-09-13T02:19:20;2.70;;;2.50;;
1026;SDS011;502;48.746;9.214;2022-09-13T02:21:50;3.20;;;2.77;;
1026;SDS011;502;48.746;9.214;2022-09-13T02:24:19;2.90;;;2.70;;
1026;SDS011;502;48.746;9.214;2022-09-13T02:26:48;3.03;;;2.70;;
1026;SDS011;502;48.746;9.214;2022-09-13T02:29:17;3.50;;;2.80;;
1026;SDS011;502;48.746;9.214;2022-09-13T02:31:46;2.83;;;2.57;;
1026;SDS011;502;48.746;9.214;2022-09-13T02:34:17;3.50;;;2.60;;
1026;SDS011;502;48.746;9.214;2022-09-13T02:36:46;2.90;;;2.60;;
1026;SDS011;502;48.746;9.214;2022-09-13T02:39:15;2.30;;;2.10;;
1026;SDS011;502;48.746;9.214;2022-09-13T02:41:43;3.60;;;2.80;;
1026;SDS011;502;48.746;9.214;2022-09-13T02:44:13;3.23;;;2.60;;
1026;SDS011;502;48.746;9.214;2022-09-13T02:46:46;3.10;;;2.50;;
1026;SDS011;502;48.746;9.214;2022-09-13T02:49:27;3.97;;;3.10;;
1026;SDS011;502;48.746;9.214;2022-09-13T02:51:56;3.13;;;2.87;;
1026;SDS011;502;48.746;9.214;2022-09-13T02:54:29;4.10;;;3.33;;
1026;SDS011;502;48.746;9.214;2022-09-13T02:56:59;3.33;;;3.03;;
1026;SDS011;502;48.746;9.214;2022-09-13T02:59:29;3.30;;;2.93;;
1026;SDS011;502;48.746;9.214;2022-09-13T03:01:56;2.83;;;2.63;;
1026;SDS011;502;48.746;9.214;2022-09-13T03:04:30;2.93;;;2.70;;
1026;SDS011;502;48.746;9.214;2022-09-13T03:06:58;3.73;;;2.90;;
1026;SDS011;502;48.746;9.214;2022-09-13T03:09:25;4.00;;;3.07;;
1026;SDS011;502;48.746;9.214;2022-09-13T03:11:55;3.70;;;3.30;;
1026;SDS011;502;48.746;9.214;2022-09-13T03:14:33;5.73;;;3.47;;
1026;SDS011;502;48.746;9.214;2022-09-13T03:17:10;4.37;;;3.97;;
1026;SDS011;502;48.746;9.214;2022-09-13T03:25:44;3.80;;;3.23;;
1026;SDS011;502;48.746;9.214;2022-09-13T03:28:23;3.20;;;2.90;;
1026;SDS011;502;48.746;9.214;2022-09-13T03:30:58;5.30;;;3.07;;
1026;SDS011;502;48.746;9.214;2022-09-13T03:33:30;3.87;;;3.13;;
1026;SDS011;502;48.746;9.214;2022-09-13T03:36:02;6.20;;;3.70;;
1026;SDS011;502;48.746;9.214;2022-09-13T03:38:32;3.70;;;3.40;;
1026;SDS011;502;48.746;9.214;2022-09-13T03:41:03;3.10;;;2.80;;
1026;SDS011;502;48.746;9.214;2022-09-13T03:43:32;3.23;;;2.80;;
1026;SDS011;502;48.746;9.214;2022-09-13T03:46:03;3.20;;;2.87;;
1026;SDS011;502;48.746;9.214;2022-09-13T03:48:31;3.90;;;3.07;;
1026;SDS011;502;48.746;9.214;2022-09-13T03:51:03;3.40;;;3.10;;
1026;SDS011;502;48.746;9.214;2022-09-13T03:53:30;4.53;;;3.00;;
1026;SDS011;502;48.746;9.214;2022-09-13T03:55:59;2.90;;;2.70;;
1026;SDS011;502;48.746;9.214;2022-09-13T03:58:26;3.80;;;3.40;;
1026;SDS011;502;48.746;9.214;2022-09-13T04:00:53;3.50;;;3.20;;
1026;SDS011;502;48.746;9.214;2022-09-13T04:03:19;4.77;;;3.20;;
1026;SDS011;502;48.746;9.214;2022-09-13T04:05:46;4.23;;;3.23;;
1026;SDS011;502;48.746;9.214;2022-09-13T04:08:14;3.67;;;3.37;;
1026;SDS011;502;48.746;9.214;2022-09-13T04:10:41;4.07;;;3.67;;
1026;SDS011;502;48.746;9.214;2022-09-13T04:13:07;3.83;;;3.27;;
1026;SDS011;502;48.746;9.214;2022-09-13T04:15:34;3.77;;;3.30;;
1026;SDS011;502;48.746;9.214;2022-09-13T04:18:00;3.80;;;3.50;;
1026;SDS011;502;48.746;9.214;2022-09-13T04:20:27;3.70;;;3.20;;
1026;SDS011;502;48.746;9.214;2022-09-13T04:22:54;5.17;;;3.40;;
1026;SDS011;502;48.746;9.214;2022-09-13T04:25:24;3.60;;;3.23;;
1026;SDS011;502;48.746;9.214;2022-09-13T04:27:52;5.13;;;3.60;;
1026;SDS011;502;48.746;9.214;2022-09-13T04:30:19;3.60;;;3.30;;
1026;SDS011;502;48.746;9.214;2022-09-13T04:32:47;3.33;;;3.03;;
1026;SDS011;502;48.746;9.214;2022-09-13T04:35:13;4.73;;;3.00;;
1026;SDS011;502;48.746;9.214;2022-09-13T04:37:41;3.60;;;3.30;;
1026;SDS011;502;48.746;9.214;2022-09-13T04:40:08;4.00;;;3.60;;
1026;SDS011;502;48.746;9.214;2022-09-13T04:42:36;4.73;;;3.60;;
1026;SDS011;502;48.746;9.214;2022-09-13T04:45:03;4.03;;;3.30;;
1026;SDS011;502;48.746;9.214;2022-09-13T04:47:30;4.20;;;3.80;;
1026;SDS011;502;48.746;9.214;2022-09-13T04:49:57;3.97;;;3.67;;
1026;SDS011;502;48.746;9.214;2022-09-13T04:52:24;4.70;;;3.57;;
1026;SDS011;502;48.746;9.214;2022-09-13T04:54:50;4.80;;;3.07;;
1026;SDS011;502;48.746;9.214;2022-09-13T04:57:17;3.83;;;3.10;;
1026;SDS011;502;48.746;9.214;2022-09-13T04:59:45;4.03;;;3.33;;
1026;SDS011;502;48.746;9.214;2022-09-13T05:02:12;3.53;;;3.23;;
1026;SDS011;502;48.746;9.214;2022-09-13T05:04:38;3.30;;;3.00;;
1026;SDS011;502;48.746;9.214;2022-09-13T05:07:05;4.40;;;3.40;;
1026;SDS011;502;48.746;9.214;2022-09-13T05:09:32;3.30;;;3.00;;
1026;SDS011;502;48.746;9.214;2022-09-13T05:11:59;3.80;;;3.50;;
1026;SDS011;502;48.746;9.214;2022-09-13T05:14:25;3.70;;;3.10;;
1026;SDS011;502;48.746;9.214;2022-09-13T05:16:53;3.67;;;3.37;;
1026;SDS011;502;48.746;9.214;2022-09-13T05:19:20;4.37;;;3.33;;
1026;SDS011;502;48.746;9.214;2022-09-13T05:21:46;3.70;;;3.40;;
1026;SDS011;502;48.746;9.214;2022-09-13T05:24:13;5.20;;;4.00;;
1026;SDS011;502;48.746;9.214;2022-09-13T05:26:40;4.30;;;3.90;;
1026;SDS011;502;48.746;9.214;2022-09-13T05:29:07;4.30;;;3.80;;
1026;SDS011;502;48.746;9.214;2022-09-13T05:31:34;3.53;;;2.87;;
1026;SDS011;502;48.746;9.214;2022-09-13T05:34:04;3.50;;;3.20;;
1026;SDS011;502;48.746;9.214;2022-09-13T05:36:34;4.00;;;3.60;;
1026;SDS011;502;48.746;9.214;2022-09-13T05:39:01;3.73;;;3.43;;
1026;SDS011;502;48.746;9.214;2022-09-13T05:41:28;3.60;;;3.30;;
1026;SDS011;502;48.746;9.214;2022-09-13T05:43:56;3.70;;;3.40;;
1026;SDS011;502;48.746;9.214;2022-09-13T05:46:23;3.37;;;3.07;;
1026;SDS011;502;48.746;9.214;2022-09-13T05:48:49;3.70;;;3.40;;
1026;SDS011;502;48.746;9.214;2022-09-13T05:51:18;3.90;;;3.50;;
1026;SDS011;502;48.746;9.214;2022-09-13T05:53:46;8.73;;;3.63;;
1026;SDS011;502;48.746;9.214;2022-09-13T05:56:15;3.90;;;3.60;;
1026;SDS011;502;48.746;9.214;2022-09-13T05:58:43;3.73;;;3.27;;
1026;SDS011;502;48.746;9.214;2022-09-13T06:01:11;3.90;;;3.60;;
1026;SDS011;502;48.746;9.214;2022-09-13T06:03:38;4.20;;;3.80;;
1026;SDS011;502;48.746;9.214;2022-09-13T06:06:05;4.57;;;3.63;;
1026;SDS011;502;48.746;9.214;2022-09-13T06:08:34;4.07;;;3.47;;
1026;SDS011;502;48.746;9.214;2022-09-13T06:11:02;3.93;;;3.20;;
1026;SDS011;502;48.746;9.214;2022-09-13T06:13:29;4.03;;;3.63;;
1026;SDS011;502;48.746;9.214;2022-09-13T06:15:56;4.00;;;3.60;;
1026;SDS011;502;48.746;9.214;2022-09-13T06:18:24;4.17;;;3.57;;
1026;SDS011;502;48.746;9.214;2022-09-13T06:20:55;4.40;;;3.70;;
1026;SDS011;502;48.746;9.214;2022-09-13T06:23:23;4.17;;;3.57;;
1026;SDS011;502;48.746;9.214;2022-09-13T06:25:51;3.87;;;3.43;;
1026;SDS011;502;48.746;9.214;2022-09-13T06:28:25;3.60;;;3.30;;
1026;SDS011;502;48.746;9.214;2022-09-13T06:30:52;6.50;;;4.37;;
1026;SDS011;502;48.746;9.214;2022-09-13T06:33:25;3.90;;;3.50;;
1026;SDS011;502;48.746;9.214;2022-09-13T06:35:52;5.53;;;3.80;;
1026;SDS011;502;48.746;9.214;2022-09-13T06:38:19;5.67;;;3.50;;
1026;SDS011;502;48.746;9.214;2022-09-13T06:40:46;3.83;;;3.53;;
1026;SDS011;502;48.746;9.214;2022-09-13T06:43:14;4.67;;;3.63;;
1026;SDS011;502;48.746;9.214;2022-09-13T06:45:40;5.17;;;3.93;;
1026;SDS011;502;48.746;9.214;2022-09-13T06:48:07;5.70;;;3.97;;
1026;SDS011;502;48.746;9.214;2022-09-13T06:50:34;4.73;;;3.80;;
1026;SDS011;502;48.746;9.214;2022-09-13T06:53:00;4.33;;;3.90;;
1026;SDS011;502;48.746;9.214;2022-09-13T06:55:28;7.47;;;3.70;;
1026;SDS011;502;48.746;9.214;2022-09-13T06:57:54;4.17;;;3.73;;
1026;SDS011;502;48.746;9.214;2022-09-13T07:00:22;3.83;;;3.53;;
1026;SDS011;502;48.746;9.214;2022-09-13T07:02:49;6.70;;;4.60;;
1026;SDS011;502;48.746;9.214;2022-09-13T07:05:17;4.90;;;4.00;;
1026;SDS011;502;48.746;9.214;2022-09-13T07:07:44;4.03;;;3.63;;
1026;SDS011;502;48.746;9.214;2022-09-13T07:10:12;5.47;;;4.40;;
1026;SDS011;502;48.746;9.214;2022-09-13T07:12:39;4.30;;;3.80;;
1026;SDS011;502;48.746;9.214;2022-09-13T07:15:06;5.50;;;3.80;;
1026;SDS011;502;48.746;9.214;2022-09-13T07:17:35;4.00;;;3.67;;
1026;SDS011;502;48.746;9.214;2022-09-13T07:20:02;5.17;;;3.80;;
1026;SDS011;502;48.746;9.214;2022-09-13T07:22:31;3.33;;;3.00;;
1026;SDS011;502;48.746;9.214;2022-09-13T07:24:58;3.97;;;3.67;;
1026;SDS011;502;48.746;9.214;2022-09-13T07:27:25;3.73;;;3.20;;
1026;SDS011;502;48.746;9.214;2022-09-13T07:29:52;4.53;;;3.80;;
1026;SDS011;502;48.746;9.214;2022-09-13T07:32:19;4.40;;;4.00;;
1026;SDS011;502;48.746;9.214;2022-09-13T07:34:48;6.77;;;3.77;;
1026;SDS011;502;48.746;9.214;2022-09-13T07:37:15;4.30;;;3.93;;
1026;SDS011;502;48.746;9.214;2022-09-13T07:39:42;4.43;;;4.03;;
1026;SDS011;502;48.746;9.214;2022-09-13T07:42:08;6.03;;;3.97;;
1026;SDS011;502;48.746;9.214;2022-09-13T07:44:35;3.87;;;3.53;;
1026;SDS011;502;48.746;9.214;2022-09-13T07:47:02;4.53;;;4.03;;
1026;SDS011;502;48.746;9.214;2022-09-13T07:49:29;6.50;;;3.97;;
1026;SDS011;502;48.746;9.214;2022-09-13T07:51:57;5.30;;;4.23;;
1026;SDS011;502;48.746;9.214;2022-09-13T07:54:24;4.27;;;3.80;;
1026;SDS011;502;48.746;9.214;2022-09-13T07:56:50;4.10;;;3.63;;
1026;SDS011;502;48.746;9.214;2022-09-13T07:59:17;3.80;;;3.40;;
1026;SDS011;502;48.746;9.214;2022-09-13T08:01:45;4.93;;;3.90;;
1026;SDS011;502;48.746;9.214;2022-09-13T08:04:13;4.20;;;3.43;;
1026;SDS011;502;48.746;9.214;2022-09-13T08:06:42;5.93;;;3.00;;
1026;SDS011;502;48.746;9.214;2022-09-13T08:09:11;3.20;;;2.90;;
1026;SDS011;502;48.746;9.214;2022-09-13T08:11:38;5.40;;;3.20;;
1026;SDS011;502;48.746;9.214;2022-09-13T08:14:06;3.47;;;3.10;;
1026;SDS011;502;48.746;9.214;2022-09-13T08:16:34;2.97;;;2.77;;
1026;SDS011;502;48.746;9.214;2022-09-13T08:19:01;3.80;;;3.40;;
1026;SDS011;502;48.746;9.214;2022-09-13T08:21:33;3.67;;;3.37;;
1026;SDS011;502;48.746;9.214;2022-09-13T08:24:01;4.80;;;2.97;;
1026;SDS011;502;48.746;9.214;2022-09-13T08:26:30;3.03;;;2.67;;
1026;SDS011;502;48.746;9.214;2022-09-13T08:28:59;3.30;;;2.80;;
1026;SDS011;502;48.746;9.214;2022-09-13T08:31:26;3.20;;;3.00;;
1026;SDS011;502;48.746;9.214;2022-09-13T08:33:53;3.50;;;3.20;;
1026;SDS011;502;48.746;9.214;2022-09-13T08:36:22;4.50;;;3.50;;
1026;SDS011;502;48.746;9.214;2022-09-13T08:38:49;9.57;;;3.67;;
1026;SDS011;502;48.746;9.214;2022-09-13T08:44:30;3.20;;;2.90;;
1026;SDS011;502;48.746;9.214;2022-09-13T08:47:02;2.90;;;2.70;;
1026;SDS011;502;48.746;9.214;2022-09-13T08:49:35;5.07;;;3.20;;
1026;SDS011;502;48.746;9.214;2022-09-13T08:52:11;3.30;;;3.00;;
1026;SDS011;502;48.746;9.214;2022-09-13T08:54:46;3.40;;;3.07;;
1026;SDS011;502;48.746;9.214;2022-09-13T08:57:14;4.90;;;3.60;;
1026;SDS011;502;48.746;9.214;2022-09-13T08:59:46;3.67;;;3.37;;
1026;SDS011;502;48.746;9.214;2022-09-13T09:02:25;4.13;;;3.73;;
1026;SDS011;502;48.746;9.214;2022-09-13T09:05:02;4.10;;;3.70;;
1026;SDS011;502;48.746;9.214;2022-09-13T09:07:32;3.80;;;3.37;;
1026;SDS011;502;48.746;9.214;2022-09-13T09:10:03;4.53;;;3.40;;
1026;SDS011;502;48.746;9.214;2022-09-13T09:12:32;5.97;;;3.53;;
1026;SDS011;502;48.746;9.214;2022-09-13T09:15:05;3.37;;;3.00;;
1026;SDS011;502;48.746;9.214;2022-09-13T09:17:42;3.80;;;3.30;;
1026;SDS011;502;48.746;9.214;2022-09-13T09:20:17;3.90;;;3.20;;
1026;SDS011;502;48.746;9.214;2022-09-13T09:22:49;6.43;;;3.33;;
1026;SDS011;502;48.746;9.214;2022-09-13T09:25:16;4.50;;;3.30;;
1026;SDS011;502;48.746;9.214;2022-09-13T09:27:43;3.77;;;2.90;;
1026;SDS011;502;48.746;9.214;2022-09-13T09:30:12;3.37;;;3.10;;
1026;SDS011;502;48.746;9.214;2022-09-13T09:32:51;5.50;;;3.43;;
1026;SDS011;502;48.746;9.214;2022-09-13T09:35:28;3.97;;;3.57;;
1026;SDS011;502;48.746;9.214;2022-09-13T09:38:07;5.00;;;4.10;;
1026;SDS011;502;48.746;9.214;2022-09-13T09:40:55;3.27;;;3.00;;
1026;SDS011;502;48.746;9.214;2022-09-13T09:43:23;4.23;;;3.20;;
1026;SDS011;502;48.746;9.214;2022-09-13T09:45:53;4.47;;;3.23;;
1026;SDS011;502;48.746;9.214;2022-09-13T09:48:23;6.37;;;3.20;;
1026;SDS011;502;48.746;9.214;2022-09-13T09:50:55;3.70;;;3.13;;
1026;SDS011;502;48.746;9.214;2022-09-13T09:53:24;3.47;;;2.83;;
1026;SDS011;502;48.746;9.214;2022-09-13T09:55:54;3.20;;;3.00;;
1026;SDS011;502;48.746;9.214;2022-09-13T09:58:35;3.10;;;2.77;;
1026;SDS011;502;48.746;9.214;2022-09-13T10:01:05;5.03;;;3.40;;
1026;SDS011;502;48.746;9.214;2022-09-13T10:03:40;2.60;;;2.40;;
1026;SDS011;502;48.746;9.214;2022-09-13T10:06:08;4.57;;;2.63;;
1026;SDS011;502;48.746;9.214;2022-09-13T10:08:37;4.70;;;3.00;;
1026;SDS011;502;48.746;9.214;2022-09-13T10:11:06;2.53;;;2.33;;
1026;SDS011;502;48.746;9.214;2022-09-13T10:13:33;4.00;;;2.50;;
1026;SDS011;502;48.746;9.214;2022-09-13T10:16:03;3.30;;;2.30;;
1026;SDS011;502;48.746;9.214;2022-09-13T10:18:33;2.80;;;2.40;;
1026;SDS011;502;48.746;9.214;2022-09-13T10:21:02;2.60;;;2.40;;
1026;SDS011;502;48.746;9.214;2022-09-13T10:23:30;2.40;;;2.20;;
1026;SDS011;502;48.746;9.214;2022-09-13T10:25:59;5.37;;;2.20;;
1026;SDS011;502;48.746;9.214;2022-09-13T10:28:29;2.10;;;1.90;;
1026;SDS011;502;48.746;9.214;2022-09-13T10:30:56;1.67;;;1.37;;
1026;SDS011;502;48.746;9.214;2022-09-13T10:33:27;3.90;;;2.07;;
1026;SDS011;502;48.746;9.214;2022-09-13T10:35:55;5.87;;;2.17;;
1026;SDS011;502;48.746;9.214;2022-09-13T10:38:25;2.50;;;1.70;;
1026;SDS011;502;48.746;9.214;2022-09-13T10:40:55;1.90;;;1.67;;
1026;SDS011;502;48.746;9.214;2022-09-13T10:43:22;1.83;;;1.73;;
1026;SDS011;502;48.746;9.214;2022-09-13T10:45:49;1.50;;;1.37;;
1026;SDS011;502;48.746;9.214;2022-09-13T10:48:17;1.80;;;1.30;;
1026;SDS011;502;48.746;9.214;2022-09-13T10:51:00;1.67;;;1.40;;
1026;SDS011;502;48.746;9.214;2022-09-13T10:53:36;2.00;;;1.80;;
1026;SDS011;502;48.746;9.214;2022-09-13T10:56:04;1.40;;;1.30;;
1026;SDS011;502;48.746;9.214;2022-09-13T10:58:32;3.90;;;1.50;;
1026;SDS011;502;48.746;9.214;2022-09-13T11:06:48;1.60;;;1.50;;
1026;SDS011;502;48.746;9.214;2022-09-13T11:09:20;2.70;;;1.63;;
1026;SDS011;502;48.746;9.214;2022-09-13T11:11:53;1.90;;;1.47;;
1026;SDS011;502;48.746;9.214;2022-09-13T11:14:33;1.50;;;1.33;;
1026;SDS011;502;48.746;9.214;2022-09-13T11:17:11;1.43;;;1.23;;
1026;SDS011;502;48.746;9.214;2022-09-13T11:19:51;1.60;;;1.47;;
1026;SDS011;502;48.746;9.214;2022-09-13T11:22:29;3.40;;;1.30;;
1026;SDS011;502;48.746;9.214;2022-09-13T11:25:04;1.53;;;1.37;;
1026;SDS011;502;48.746;9.214;2022-09-13T11:27:42;1.87;;;1.40;;
1026;SDS011;502;48.746;9.214;2022-09-13T11:30:15;1.40;;;1.10;;
1026;SDS011;502;48.746;9.214;2022-09-13T11:32:50;1.90;;;1.33;;
1026;SDS011;502;48.746;9.214;2022-09-13T11:35:27;1.67;;;1.20;;
1026;SDS011;502;48.746;9.214;2022-09-13T11:38:07;1.10;;;0.90;;
1026;SDS011;502;48.746;9.214;2022-09-13T11:40:48;1.03;;;0.93;;
1026;SDS011;502;48.746;9.214;2022-09-13T11:43:21;1.43;;;1.03;;
1026;SDS011;502;48.746;9.214;2022-09-13T11:45:58;1.27;;;0.90;;
1026;SDS011;502;48.746;9.214;2022-09-13T11:48:31;1.10;;;1.00;;
1026;SDS011;502;48.746;9.214;2022-09-13T11:51:06;1.20;;;0.80;;
1026;SDS011;502;48.746;9.214;2022-09-13T11:56:36;1.20;;;0.80;;
1026;SDS011;502;48.746;9.214;2022-09-13T11:59:08;2.10;;;1.10;;
1026;SDS011;502;48.746;9.214;2022-09-13T12:01:42;2.07;;;1.20;;
1026;SDS011;502;48.746;9.214;2022-09-13T12:04:11;1.33;;;1.20;;
1026;SDS011;502;48.746;9.214;2022-09-13T12:06:44;1.57;;;1.00;;
1026;SDS011;502;48.746;9.214;2022-09-13T12:09:15;1.30;;;1.20;;
1026;SDS011;502;48.746;9.214;2022-09-13T12:11:46;1.10;;;1.00;;
1026;SDS011;502;48.746;9.214;2022-09-13T12:14:14;1.13;;;1.00;;
1026;SDS011;502;48.746;9.214;2022-09-13T12:16:43;2.80;;;1.20;;
1026;SDS011;502;48.746;9.214;2022-09-13T12:19:13;1.30;;;1.13;;
1026;SDS011;502;48.746;9.214;2022-09-13T12:21:42;1.37;;;0.93;;
1026;SDS011;502;48.746;9.214;2022-09-13T12:24:12;2.53;;;0.80;;
1026;SDS011;502;48.746;9.214;2022-09-13T12:26:44;2.30;;;0.90;;
1026;SDS011;502;48.746;9.214;2022-09-13T12:29:14;1.47;;;1.10;;
1026;SDS011;502;48.746;9.214;2022-09-13T12:31:43;1.50;;;1.00;;
1026;SDS011;502;48.746;9.214;2022-09-13T12:34:14;1.77;;;1.00;;
1026;SDS011;502;48.746;9.214;2022-09-13T12:39:41;1.90;;;1.30;;
1026;SDS011;502;48.746;9.214;2022-09-13T12:45:15;1.63;;;1.50;;
1026;SDS011;502;48.746;9.214;2022-09-13T12:47:56;1.77;;;1.20;;
1026;SDS011;502;48.746;9.214;2022-09-13T12:50:41;1.50;;;1.33;;
1026;SDS011;502;48.746;9.214;2022-09-13T12:53:24;1.63;;;1.50;;
1026;SDS011;502;48.746;9.214;2022-09-13T12:56:03;4.70;;;1.70;;
1026;SDS011;502;48.746;9.214;2022-09-13T12:58:55;1.80;;;1.60;;
1026;SDS011;502;48.746;9.214;2022-09-13T13:01:30;1.80;;;1.70;;
1026;SDS011;502;48.746;9.214;2022-09-13T13:03:58;3.50;;;1.40;;
1026;SDS011;502;48.746;9.214;2022-09-13T13:06:29;2.50;;;1.50;;
1026;SDS011;502;48.746;9.214;2022-09-13T13:08:59;3.27;;;1.57;;
1026;SDS011;502;48.746;9.214;2022-09-13T13:11:39;1.30;;;1.20;;
1026;SDS011;502;48.746;9.214;2022-09-13T13:14:10;1.70;;;1.50;;
1026;SDS011;502;48.746;9.214;2022-09-13T13:19:55;2.40;;;1.37;;
1026;SDS011;502;48.746;9.214;2022-09-13T13:25:31;1.57;;;1.40;;
1026;SDS011;502;48.746;9.214;2022-09-13T13:28:03;1.40;;;1.30;;
1026;SDS011;502;48.746;9.214;2022-09-13T13:31:09;2.37;;;1.60;;
1026;SDS011;502;48.746;9.214;2022-09-13T13:33:44;6.07;;;1.93;;
1026;SDS011;502;48.746;9.214;2022-09-13T13:36:22;2.23;;;1.40;;
1026;SDS011;502;48.746;9.214;2022-09-13T13:38:49;2.13;;;1.47;;
1026;SDS011;502;48.746;9.214;2022-09-13T13:41:36;3.50;;;1.60;;
1026;SDS011;502;48.746;9.214;2022-09-13T13:50:17;1.20;;;1.10;;
1026;SDS011;502;48.746;9.214;2022-09-13T13:52:55;2.00;;;1.50;;
1026;SDS011;502;48.746;9.214;2022-09-13T13:55:40;1.10;;;1.00;;
1026;SDS011;502;48.746;9.214;2022-09-13T13:58:14;1.30;;;1.20;;
1026;SDS011;502;48.746;9.214;2022-09-13T14:00:51;1.60;;;1.30;;
1026;SDS011;502;48.746;9.214;2022-09-13T14:03:22;1.10;;;1.00;;
1026;SDS011;502;48.746;9.214;2022-09-13T14:05:56;1.40;;;1.10;;
1026;SDS011;502;48.746;9.214;2022-09-13T14:08:31;1.87;;;1.13;;
1026;SDS011;502;48.746;9.214;2022-09-13T14:11:04;1.63;;;1.20;;
1026;SDS011;502;48.746;9.214;2022-09-13T14:13:41;1.10;;;0.70;;
1026;SDS011;502;48.746;9.214;2022-09-13T14:16:15;1.63;;;1.00;;
1026;SDS011;502;48.746;9.214;2022-09-13T14:18:59;1.00;;;0.90;;
1026;SDS011;502;48.746;9.214;2022-09-13T14:24:40;1.40;;;0.97;;
1026;SDS011;502;48.746;9.214;2022-09-13T14:27:14;1.37;;;0.90;;
1026;SDS011;502;48.746;9.214;2022-09-13T14:29:53;1.40;;;1.00;;
1026;SDS011;502;48.746;9.214;2022-09-13T14:32:24;1.60;;;0.80;;
1026;SDS011;502;48.746;9.214;2022-09-13T14:34:55;1.20;;;0.93;;
1026;SDS011;502;48.746;9.214;2022-09-13T14:37:25;1.13;;;0.77;;
1026;SDS011;502;48.746;9.214;2022-09-13T14:39:57;1.40;;;0.77;;
1026;SDS011;502;48.746;9.214;2022-09-13T14:42:26;0.97;;;0.70;;
1026;SDS011;502;48.746;9.214;2022-09-13T14:45:04;1.00;;;0.90;;
1026;SDS011;502;48.746;9.214;2022-09-13T14:47:31;1.20;;;0.73;;
1026;SDS011;502;48.746;9.214;2022-09-13T14:50:03;1.30;;;0.90;;
1026;SDS011;502;48.746;9.214;2022-09-13T14:52:34;0.97;;;0.73;;
1026;SDS011;502;48.746;9.214;2022-09-13T14:55:04;1.30;;;0.70;;
1026;SDS011;502;48.746;9.214;2022-09-13T14:57:35;2.43;;;1.30;;
1026;SDS011;502;48.746;9.214;2022-09-13T15:00:05;1.40;;;0.90;;
1026;SDS011;502;48.746;9.214;2022-09-13T15:02:35;1.00;;;0.73;;
1026;SDS011;502;48.746;9.214;2022-09-13T15:05:05;1.57;;;0.70;;
1026;SDS011;502;48.746;9.214;2022-09-13T15:07:36;1.30;;;0.93;;
1026;SDS011;502;48.746;9.214;2022-09-13T15:10:08;1.63;;;0.90;;
1026;SDS011;502;48.746;9.214;2022-09-13T15:12:49;1.20;;;0.80;;
1026;SDS011;502;48.746;9.214;2022-09-13T15:15:34;1.50;;;0.80;;
1026;SDS011;502;48.746;9.214;2022-09-13T15:18:02;4.90;;;1.07;;
1026;SDS011;502;48.746;9.214;2022-09-13T15:20:42;1.20;;;0.70;;
1026;SDS011;502;48.746;9.214;2022-09-13T15:23:12;1.00;;;0.90;;
1026;SDS011;502;48.746;9.214;2022-09-13T15:25:40;3.07;;;1.00;;
1026;SDS011;502;48.746;9.214;2022-09-13T15:28:15;2.20;;;1.00;;
1026;SDS011;502;48.746;9.214;2022-09-13T15:30:47;1.00;;;0.80;;
1026;SDS011;502;48.746;9.214;2022-09-13T15:33:16;1.83;;;1.20;;
1026;SDS011;502;48.746;9.214;2022-09-13T15:35:49;1.23;;;0.93;;
1026;SDS011;502;48.746;9.214;2022-09-13T15:38:22;1.73;;;1.10;;
1026;SDS011;502;48.746;9.214;2022-09-13T15:40:57;2.40;;;0.80;;
1026;SDS011;502;48.746;9.214;2022-09-13T15:43:25;2.03;;;1.40;;
1026;SDS011;502;48.746;9.214;2022-09-13T15:45:52;1.73;;;1.57;;
1026;SDS011;502;48.746;9.214;2022-09-13T15:48:22;2.90;;;2.00;;
1026;SDS011;502;48.746;9.214;2022-09-13T15:51:04;2.17;;;1.70;;
1026;SDS011;502;48.746;9.214;2022-09-13T15:53:33;2.37;;;1.50;;
1026;SDS011;502;48.746;9.214;2022-09-13T15:56:01;1.33;;;1.23;;
1026;SDS011;502;48.746;9.214;2022-09-13T15:58:28;2.63;;;1.53;;
1026;SDS011;502;48.746;9.214;2022-09-13T16:00:55;2.13;;;1.50;;
1026;SDS011;502;48.746;9.214;2022-09-13T16:03:22;1.40;;;1.30;;
1026;SDS011;502;48.746;9.214;2022-09-13T16:05:48;3.10;;;1.67;;
1026;SDS011;502;48.746;9.214;2022-09-13T16:08:16;1.87;;;1.50;;
1026;SDS011;502;48.746;9.214;2022-09-13T16:10:43;3.23;;;1.43;;
1026;SDS011;502;48.746;9.214;2022-09-13T16:13:10;1.60;;;1.50;;
1026;SDS011;502;48.746;9.214;2022-09-13T16:15:37;1.90;;;1.53;;
1026;SDS011;502;48.746;9.214;2022-09-13T16:18:03;2.00;;;1.80;;
1026;SDS011;502;48.746;9.214;2022-09-13T16:20:30;1.90;;;1.50;;
1026;SDS011;502;48.746;9.214;2022-09-13T16:22:57;1.67;;;1.47;;
1026;SDS011;502;48.746;9.214;2022-09-13T16:25:25;1.83;;;1.40;;
1026;SDS011;502;48.746;9.214;2022-09-13T16:27:51;2.20;;;2.00;;
1026;SDS011;502;48.746;9.214;2022-09-13T16:30:19;1.60;;;1.50;;
1026;SDS011;502;48.746;9.214;2022-09-13T16:32:47;1.50;;;1.40;;